Time;durP1;ratioP1;P1;durP2;ratioP2;P2;SDS_P1;SDS_P2;PMS_P1;PMS_P2;Temp;Humidity;BMP_temperature;BMP_pressure;BME280_temperature;BME280_humidity;BME280_pressure;Samples;Min_cycle;Max_cycle;Signal;HPM_P1;HPM_P2
2023/04/29 00:02:35;;;;;;;;;;;21.60;39.60;;;;;;8397162;28;19924;-44
2023/04/29 00:06:36;;;;;;;;;;;21.60;39.60;;;;;;8397169;28;19921;-44
2023/04/29 00:10:36;;;;;;;;;;;21.70;39.60;;;;;;8397162;28;19952;-44
2023/04/29 00:14:37;;;;;;;;;;;21.60;39.70;;;;;;8397040;28;20316;-44
2023/04/29 00:18:37;;;;;;;;;;;21.60;39.60;;;;;;8396641;28;19943;-44
2023/04/29 00:22:38;;;;;;;;;;;21.60;39.80;;;;;;8396858;28;19920;-44
2023/04/29 00:26:40;;;;;;;;;;;21.60;39.70;;;;;;8397154;28;19920;-44
2023/04/29 00:30:40;;;;;;;;;;;21.60;39.70;;;;;;8396176;28;19947;-44
2023/04/29 00:34:41;;;;;;;;;;;21.60;39.70;;;;;;8396365;28;19920;-44
2023/04/29 00:38:42;;;;;;;;;;;21.60;39.80;;;;;;8396572;28;20007;-44
2023/04/29 00:42:42;;;;;;;;;;;21.60;39.80;;;;;;8395914;28;19917;-44
2023/04/29 00:46:42;;;;;;;;;;;21.60;39.90;;;;;;8396189;28;20001;-43
2023/04/29 00:50:43;;;;;;;;;;;21.50;39.80;;;;;;8395956;28;19921;-45
2023/04/29 00:54:43;;;;;;;;;;;21.50;39.80;;;;;;8395502;28;20342;-44
2023/04/29 00:58:48;;;;;;;;;;;21.60;39.80;;;;;;8396264;28;20110;-44
2023/04/29 01:02:49;;;;;;;;;;;21.50;39.80;;;;;;8395173;28;19959;-44
2023/04/29 01:06:52;;;;;;;;;;;21.50;39.90;;;;;;8394834;28;19920;-43
2023/04/29 01:10:59;;;;;;;;;;;21.50;39.80;;;;;;8395814;28;19947;-45
2023/04/29 01:15:00;;;;;;;;;;;21.50;39.90;;;;;;8394869;28;19916;-44
2023/04/29 01:19:02;;;;;;;;;;;21.50;39.90;;;;;;8395101;28;20003;-43
2023/04/29 01:23:02;;;;;;;;;;;21.50;39.90;;;;;;8395319;28;19923;-44
2023/04/29 01:27:13;;;;;;;;;;;21.50;39.80;;;;;;8395421;28;19921;-43
2023/04/29 01:31:17;;;;;;;;;;;21.50;39.90;;;;;;8395015;28;20297;-43
2023/04/29 01:35:29;;;;;;;;;;;21.50;39.90;;;;;;8395208;28;19927;-44
2023/04/29 01:39:40;;;;;;;;;;;21.50;39.90;;;;;;8394718;28;19978;-44
2023/04/29 01:43:41;;;;;;;;;;;21.50;39.90;;;;;;8395405;28;19916;-44
2023/04/29 01:47:43;;;;;;;;;;;21.40;39.80;;;;;;8395034;28;19921;-44
2023/04/29 01:51:44;;;;;;;;;;;21.40;39.80;;;;;;8394539;28;19924;-44
2023/04/29 01:55:44;;;;;;;;;;;21.40;39.90;;;;;;8394820;28;19917;-43
2023/04/29 01:59:44;;;;;;;;;;;21.40;39.90;;;;;;8394790;28;19916;-44
2023/04/29 02:03:45;;;;;;;;;;;21.40;39.80;;;;;;8394280;28;19924;-43
2023/04/29 02:07:46;;;;;;;;;;;21.40;39.90;;;;;;8395111;28;19963;-44
2023/04/29 02:11:47;;;;;;;;;;;21.40;39.90;;;;;;8394796;28;19939;-43
2023/04/29 02:15:47;;;;;;;;;;;21.40;39.90;;;;;;8394292;28;20007;-44
2023/04/29 02:19:48;;;;;;;;;;;21.40;39.90;;;;;;8394494;28;19916;-44
2023/04/29 02:23:49;;;;;;;;;;;21.40;39.90;;;;;;8394556;28;20027;-44
2023/04/29 02:27:50;;;;;;;;;;;21.30;39.90;;;;;;8400037;28;19968;-44
2023/04/29 02:31:51;;;;;;;;;;;21.40;40.00;;;;;;8400556;28;19916;-44
2023/04/29 02:35:51;;;;;;;;;;;21.40;40.00;;;;;;8400456;28;19916;-44
2023/04/29 02:39:51;;;;;;;;;;;21.30;39.90;;;;;;8399606;28;19928;-44
2023/04/29 02:43:52;;;;;;;;;;;21.30;39.90;;;;;;8400288;28;19912;-45
2023/04/29 02:47:52;;;;;;;;;;;21.30;39.90;;;;;;8400092;28;19924;-44
2023/04/29 02:51:53;;;;;;;;;;;21.30;39.90;;;;;;8399401;28;19924;-43
2023/04/29 02:55:54;;;;;;;;;;;21.30;39.90;;;;;;8400022;28;19923;-44
2023/04/29 02:59:55;;;;;;;;;;;21.30;39.90;;;;;;8399808;28;19913;-44
2023/04/29 03:03:55;;;;;;;;;;;21.30;39.80;;;;;;8399124;28;19921;-43
2023/04/29 03:07:55;;;;;;;;;;;21.30;39.90;;;;;;8399745;28;19920;-44
2023/04/29 03:11:56;;;;;;;;;;;21.30;40.00;;;;;;8399151;28;20139;-44
2023/04/29 03:15:58;;;;;;;;;;;21.30;40.00;;;;;;8398553;28;19923;-44
2023/04/29 03:19:58;;;;;;;;;;;21.30;40.00;;;;;;8398886;28;20007;-44
2023/04/29 03:23:59;;;;;;;;;;;21.30;40.00;;;;;;8398851;28;19962;-44
2023/04/29 03:27:59;;;;;;;;;;;21.30;39.90;;;;;;8398463;28;20113;-44
2023/04/29 03:32:01;;;;;;;;;;;21.30;39.80;;;;;;8398579;28;19962;-44
2023/04/29 03:36:02;;;;;;;;;;;21.30;39.80;;;;;;8397917;28;20323;-43
2023/04/29 03:40:03;;;;;;;;;;;21.30;39.70;;;;;;8397764;28;19916;-44
2023/04/29 03:44:03;;;;;;;;;;;21.30;39.60;;;;;;8398303;28;20338;-43
2023/04/29 03:48:04;;;;;;;;;;;21.30;39.60;;;;;;8398276;28;20345;-43
2023/04/29 03:52:05;;;;;;;;;;;21.30;39.80;;;;;;8397320;28;19923;-43
2023/04/29 03:56:05;;;;;;;;;;;21.30;39.80;;;;;;8397972;28;19917;-43
2023/04/29 04:00:06;;;;;;;;;;;21.30;39.70;;;;;;8397302;28;19951;-42
2023/04/29 04:04:07;;;;;;;;;;;21.30;39.70;;;;;;8397608;28;20444;-43
2023/04/29 04:08:07;;;;;;;;;;;21.30;39.70;;;;;;8396628;28;19920;-43
2023/04/29 04:12:08;;;;;;;;;;;21.30;39.80;;;;;;8396682;28;20072;-43
2023/04/29 04:16:09;;;;;;;;;;;21.40;39.60;;;;;;8397023;28;20003;-44
2023/04/29 04:20:10;;;;;;;;;;;21.40;39.40;;;;;;8397307;28;19917;-45
2023/04/29 04:24:10;;;;;;;;;;;21.50;39.40;;;;;;8396482;28;19963;-45
2023/04/29 04:28:11;;;;;;;;;;;21.50;39.40;;;;;;8397256;28;19927;-43
2023/04/29 04:32:11;;;;;;;;;;;21.60;39.30;;;;;;8396528;28;19916;-44
2023/04/29 04:36:12;;;;;;;;;;;21.60;39.30;;;;;;8396077;28;20289;-45
2023/04/29 04:40:12;;;;;;;;;;;21.70;39.30;;;;;;8396365;28;19922;-45
2023/04/29 04:44:13;;;;;;;;;;;21.70;39.30;;;;;;8396445;28;19932;-43
2023/04/29 04:48:13;;;;;;;;;;;21.70;39.30;;;;;;8394975;28;20005;-44
2023/04/29 04:52:14;;;;;;;;;;;21.70;39.40;;;;;;8396056;28;19916;-44
2023/04/29 04:56:14;;;;;;;;;;;21.70;39.20;;;;;;8396266;28;20172;-45
2023/04/29 05:00:15;;;;;;;;;;;21.70;39.20;;;;;;8394140;28;19917;-45
2023/04/29 05:04:15;;;;;;;;;;;21.70;39.20;;;;;;8395846;28;19927;-47
2023/04/29 05:08:16;;;;;;;;;;;21.70;39.20;;;;;;8394624;28;20297;-45
2023/04/29 05:12:16;;;;;;;;;;;21.70;39.10;;;;;;8395269;28;20364;-44
2023/04/29 05:16:17;;;;;;;;;;;21.70;39.10;;;;;;8395472;28;19920;-44
2023/04/29 05:20:19;;;;;;;;;;;21.70;39.10;;;;;;8394461;28;19916;-45
2023/04/29 05:24:19;;;;;;;;;;;21.70;39.10;;;;;;8395233;28;19928;-44
2023/04/29 05:28:20;;;;;;;;;;;21.70;39.10;;;;;;8395929;28;20022;-43
2023/04/29 05:32:20;;;;;;;;;;;21.70;39.20;;;;;;8395358;28;20352;-45
2023/04/29 05:36:21;;;;;;;;;;;21.70;39.30;;;;;;8394996;28;19959;-45
2023/04/29 05:40:22;;;;;;;;;;;21.60;39.30;;;;;;8395174;28;19913;-45
2023/04/29 05:44:22;;;;;;;;;;;21.60;39.40;;;;;;8395177;28;19962;-48
2023/04/29 05:48:23;;;;;;;;;;;21.60;39.50;;;;;;8394719;28;19932;-45
2023/04/29 05:52:24;;;;;;;;;;;21.60;39.50;;;;;;8394939;28;20346;-45
2023/04/29 05:56:24;;;;;;;;;;;21.60;39.60;;;;;;8394834;28;19912;-44
2023/04/29 06:00:25;;;;;;;;;;;21.70;39.60;;;;;;8396940;28;19962;-45
2023/04/29 06:04:26;;;;;;;;;;;21.70;39.70;;;;;;8401239;28;19920;-45
2023/04/29 06:08:26;;;;;;;;;;;21.70;39.60;;;;;;8401115;28;20368;-46
2023/04/29 06:12:27;;;;;;;;;;;21.60;39.40;;;;;;8400292;28;19995;-46
2023/04/29 06:16:27;;;;;;;;;;;21.60;39.40;;;;;;8400534;28;19916;-45
2023/04/29 06:20:28;;;;;;;;;;;21.60;39.40;;;;;;8400450;28;19913;-46
2023/04/29 06:24:28;;;;;;;;;;;21.70;39.30;;;;;;8400159;28;19917;-46
2023/04/29 06:28:29;;;;;;;;;;;21.60;39.30;;;;;;8400549;28;19935;-46
2023/04/29 06:32:29;;;;;;;;;;;21.60;39.30;;;;;;8399937;28;20385;-46
2023/04/29 06:36:31;;;;;;;;;;;21.70;39.40;;;;;;8399591;28;20301;-45
2023/04/29 06:40:31;;;;;;;;;;;21.70;39.40;;;;;;8400032;28;20374;-44
2023/04/29 06:44:32;;;;;;;;;;;21.70;39.50;;;;;;8400095;28;19962;-45
2023/04/29 06:48:32;;;;;;;;;;;21.80;39.50;;;;;;8399012;28;19924;-44
2023/04/29 06:52:33;;;;;;;;;;;21.90;39.40;;;;;;8399512;28;19995;-43
2023/04/29 06:56:33;;;;;;;;;;;21.90;39.20;;;;;;8399447;28;20362;-44
2023/04/29 07:00:34;;;;;;;;;;;21.90;39.90;;;;;;8398832;28;20007;-44
2023/04/29 07:04:36;;;;;;;;;;;21.90;39.80;;;;;;8398765;28;19920;-45
2023/04/29 07:08:36;;;;;;;;;;;22.00;39.40;;;;;;8399053;28;19925;-44
2023/04/29 07:12:37;;;;;;;;;;;22.00;39.30;;;;;;8397313;28;19920;-44
2023/04/29 07:16:37;;;;;;;;;;;22.10;39.30;;;;;;8399097;28;20369;-45
2023/04/29 07:20:38;;;;;;;;;;;22.10;39.40;;;;;;8398707;28;19919;-45
2023/04/29 07:24:38;;;;;;;;;;;22.10;39.50;;;;;;8398198;28;19922;-44
2023/04/29 07:28:39;;;;;;;;;;;22.00;39.50;;;;;;8398285;28;19932;-44
2023/04/29 07:32:39;;;;;;;;;;;22.10;39.50;;;;;;8398218;28;20443;-46
2023/04/29 07:36:40;;;;;;;;;;;22.10;39.50;;;;;;8397523;28;19966;-45
2023/04/29 07:40:40;;;;;;;;;;;22.10;39.50;;;;;;8397906;28;20386;-44
2023/04/29 07:44:41;;;;;;;;;;;22.10;39.60;;;;;;8398151;28;19916;-44
2023/04/29 07:48:41;;;;;;;;;;;22.10;39.60;;;;;;8397244;28;20000;-45
2023/04/29 07:52:42;;;;;;;;;;;22.10;39.70;;;;;;8397443;28;19917;-44
2023/04/29 07:56:42;;;;;;;;;;;22.10;39.70;;;;;;8397433;28;19916;-43
2023/04/29 08:00:43;;;;;;;;;;;22.10;39.70;;;;;;8396833;28;19916;-44
2023/04/29 08:04:43;;;;;;;;;;;22.10;39.80;;;;;;8397213;28;19925;-44
2023/04/29 08:08:44;;;;;;;;;;;22.10;40.30;;;;;;8397092;28;19924;-44
2023/04/29 08:12:44;;;;;;;;;;;22.10;39.80;;;;;;8396441;28;20361;-43
2023/04/29 08:16:45;;;;;;;;;;;22.10;39.80;;;;;;8396949;28;19920;-44
2023/04/29 08:20:46;;;;;;;;;;;22.10;39.80;;;;;;8396513;28;19924;-44
2023/04/29 08:24:47;;;;;;;;;;;22.20;39.80;;;;;;8396261;28;19913;-44
2023/04/29 08:28:47;;;;;;;;;;;22.20;39.80;;;;;;8396751;28;19924;-45
2023/04/29 08:32:48;;;;;;;;;;;22.20;39.80;;;;;;8396696;28;19912;-44
2023/04/29 08:36:48;;;;;;;;;;;22.20;39.70;;;;;;8395967;28;20343;-44
2023/04/29 08:40:49;;;;;;;;;;;22.20;39.70;;;;;;8396196;28;19928;-44
2023/04/29 08:44:51;;;;;;;;;;;22.20;39.60;;;;;;8396402;28;19970;-44
2023/04/29 08:48:52;;;;;;;;;;;22.20;39.50;;;;;;8395440;28;19932;-43
2023/04/29 08:52:52;;;;;;;;;;;22.30;39.60;;;;;;8395704;28;19916;-44
2023/04/29 08:56:54;;;;;;;;;;;22.30;39.60;;;;;;8395975;28;19918;-44
2023/04/29 09:00:55;;;;;;;;;;;22.30;39.50;;;;;;8395146;28;20281;-44
2023/04/29 09:05:07;;;;;;;;;;;22.30;39.50;;;;;;8395900;28;19927;-44
2023/04/29 09:09:08;;;;;;;;;;;22.30;39.50;;;;;;8394907;28;20011;-43
2023/04/29 09:13:21;;;;;;;;;;;22.30;39.50;;;;;;8395632;28;19921;-44
2023/04/29 09:17:40;;;;;;;;;;;22.30;39.60;;;;;;8395264;28;19993;-44
2023/04/29 09:21:52;;;;;;;;;;;22.30;39.60;;;;;;8394761;28;19917;-44
2023/04/29 09:25:56;;;;;;;;;;;22.30;39.60;;;;;;8395036;28;19921;-44
2023/04/29 09:30:00;;;;;;;;;;;22.40;39.60;;;;;;8395629;28;20003;-44
2023/04/29 09:34:01;;;;;;;;;;;22.50;39.50;;;;;;8395896;28;20369;-45
2023/04/29 09:38:09;;;;;;;;;;;22.50;39.60;;;;;;8406133;28;19928;-44
2023/04/29 09:42:09;;;;;;;;;;;22.50;39.60;;;;;;8405930;28;19920;-45
2023/04/29 09:46:11;;;;;;;;;;;22.50;39.50;;;;;;8405803;28;19920;-44
2023/04/29 09:50:17;;;;;;;;;;;22.50;39.50;;;;;;8405998;28;20255;-44
2023/04/29 09:54:21;;;;;;;;;;;22.60;39.40;;;;;;8405575;28;20323;-44
2023/04/29 09:58:32;;;;;;;;;;;22.60;39.20;;;;;;8406083;28;19916;-44
2023/04/29 10:02:33;;;;;;;;;;;22.60;39.20;;;;;;8405692;28;20343;-45
2023/04/29 10:06:33;;;;;;;;;;;22.70;39.30;;;;;;8405252;28;19924;-44
2023/04/29 10:10:34;;;;;;;;;;;22.70;39.30;;;;;;8374139;28;19919;-44
2023/04/29 10:14:41;;;;;;;;;;;22.70;39.30;;;;;;8401436;28;19917;-45
2023/04/29 10:18:45;;;;;;;;;;;22.70;39.30;;;;;;8405212;28;19916;-44
2023/04/29 10:22:46;;;;;;;;;;;22.70;39.20;;;;;;8405466;28;19956;-44
2023/04/29 10:26:49;;;;;;;;;;;22.80;39.20;;;;;;8405513;28;20301;-45
2023/04/29 10:30:51;;;;;;;;;;;22.80;39.20;;;;;;8404502;28;20019;-44
2023/04/29 10:34:52;;;;;;;;;;;22.80;39.10;;;;;;8405709;28;20264;-44
2023/04/29 10:38:54;;;;;;;;;;;22.80;39.10;;;;;;8405403;28;20377;-44
2023/04/29 10:42:55;;;;;;;;;;;22.80;39.20;;;;;;8405367;28;20041;-44
2023/04/29 10:47:17;;;;;;;;;;;22.80;39.10;;;;;;8401487;28;19947;-44
2023/04/29 10:51:27;;;;;;;;;;;22.90;39.10;;;;;;8399795;28;19970;-44
2023/04/29 10:55:28;;;;;;;;;;;22.90;39.00;;;;;;8403081;28;19924;-44
2023/04/29 10:59:31;;;;;;;;;;;22.90;39.00;;;;;;8399693;28;19917;-44
2023/04/29 11:03:47;;;;;;;;;;;22.90;39.00;;;;;;8397797;28;19920;-44
2023/04/29 11:08:07;;;;;;;;;;;22.90;39.00;;;;;;8399462;28;19920;-46
2023/04/29 11:12:08;;;;;;;;;;;22.90;38.90;;;;;;8399006;28;19952;-43
2023/04/29 11:16:09;;;;;;;;;;;22.90;38.90;;;;;;8399658;28;20392;-44
2023/04/29 11:20:12;;;;;;;;;;;22.90;38.90;;;;;;8399407;28;19920;-44
2023/04/29 11:24:14;;;;;;;;;;;23.00;38.90;;;;;;8398704;28;19966;-45
2023/04/29 11:28:15;;;;;;;;;;;23.00;38.90;;;;;;8398991;28;19953;-46
2023/04/29 11:32:19;;;;;;;;;;;23.00;38.90;;;;;;8397718;28;19912;-44
2023/04/29 11:36:19;;;;;;;;;;;23.00;38.90;;;;;;8398604;28;19943;-47
2023/04/29 11:40:20;;;;;;;;;;;23.00;38.80;;;;;;8398894;28;19948;-43
2023/04/29 11:44:24;;;;;;;;;;;23.00;38.80;;;;;;8398339;28;20400;-44
2023/04/29 11:48:25;;;;;;;;;;;23.00;38.80;;;;;;8397874;28;19920;-45
2023/04/29 11:52:25;;;;;;;;;;;23.00;38.80;;;;;;8397639;28;19919;-45
2023/04/29 11:56:26;;;;;;;;;;;23.00;38.70;;;;;;8398414;28;19916;-47
2023/04/29 12:00:26;;;;;;;;;;;23.00;38.70;;;;;;8395533;28;20361;-43
2023/04/29 12:04:27;;;;;;;;;;;23.00;38.70;;;;;;8397718;28;19920;-48
2023/04/29 12:08:28;;;;;;;;;;;23.10;39.20;;;;;;8397936;28;19920;-45
2023/04/29 12:12:33;;;;;;;;;;;23.10;38.60;;;;;;8397039;28;19975;-45
2023/04/29 12:16:34;;;;;;;;;;;23.10;38.70;;;;;;8396271;28;20266;-45
2023/04/29 12:20:34;;;;;;;;;;;23.10;38.60;;;;;;8397318;28;19920;-47
2023/04/29 12:24:35;;;;;;;;;;;23.10;38.60;;;;;;8396728;28;20015;-47
2023/04/29 12:28:36;;;;;;;;;;;23.10;38.50;;;;;;8397109;28;19931;-44
2023/04/29 12:32:37;;;;;;;;;;;23.10;38.50;;;;;;8395344;28;20007;-44
2023/04/29 12:36:40;;;;;;;;;;;23.20;38.40;;;;;;8396642;28;20344;-44
2023/04/29 12:40:40;;;;;;;;;;;23.10;38.40;;;;;;8396524;28;20007;-44
2023/04/29 12:44:43;;;;;;;;;;;23.20;38.30;;;;;;8396467;28;19920;-44
2023/04/29 12:48:45;;;;;;;;;;;23.20;38.30;;;;;;8395870;28;19924;-43
2023/04/29 12:52:46;;;;;;;;;;;23.20;38.30;;;;;;8396190;28;19917;-45
2023/04/29 12:56:46;;;;;;;;;;;23.20;38.30;;;;;;8396225;28;19913;-45
2023/04/29 13:00:47;;;;;;;;;;;23.30;38.30;;;;;;8395530;28;19986;-43
2023/04/29 13:04:48;;;;;;;;;;;23.30;38.20;;;;;;8395971;28;19920;-44
2023/04/29 13:08:50;;;;;;;;;;;23.30;38.20;;;;;;8376630;28;19928;-43
2023/04/29 13:12:50;;;;;;;;;;;23.30;38.10;;;;;;8395117;28;20251;-43
2023/04/29 13:16:51;;;;;;;;;;;23.30;38.00;;;;;;8395952;28;19913;-44
2023/04/29 13:20:52;;;;;;;;;;;23.30;38.10;;;;;;8395501;28;19920;-44
2023/04/29 13:24:53;;;;;;;;;;;23.30;38.00;;;;;;8395216;28;20393;-46
2023/04/29 13:28:53;;;;;;;;;;;23.30;38.00;;;;;;8395433;28;19928;-44
2023/04/29 13:32:53;;;;;;;;;;;23.30;38.00;;;;;;8395486;28;19916;-45
2023/04/29 13:36:54;;;;;;;;;;;23.30;38.00;;;;;;8395212;28;19913;-44
2023/04/29 13:40:55;;;;;;;;;;;23.40;38.00;;;;;;8395362;28;19916;-43
2023/04/29 13:44:56;;;;;;;;;;;23.30;38.00;;;;;;8394220;28;19916;-47
2023/04/29 13:48:56;;;;;;;;;;;23.40;38.00;;;;;;8394844;28;19925;-44
2023/04/29 13:52:57;;;;;;;;;;;23.30;38.00;;;;;;8395358;28;20296;-45
2023/04/29 13:56:57;;;;;;;;;;;23.40;38.00;;;;;;8395414;28;19969;-45
2023/04/29 14:00:58;;;;;;;;;;;23.40;38.00;;;;;;8394586;28;19917;-46
2023/04/29 14:04:58;;;;;;;;;;;23.40;38.00;;;;;;8394954;28;19943;-44
2023/04/29 14:08:59;;;;;;;;;;;23.40;38.00;;;;;;8395081;28;19927;-43
2023/04/29 14:12:59;;;;;;;;;;;23.40;38.00;;;;;;8393517;28;20004;-45
2023/04/29 14:17:00;;;;;;;;;;;23.30;38.00;;;;;;8395269;28;19921;-45
2023/04/29 14:21:00;;;;;;;;;;;23.40;38.00;;;;;;8396444;28;19916;-44
2023/04/29 14:25:01;;;;;;;;;;;23.40;38.00;;;;;;8400407;28;19917;-43
2023/04/29 14:29:01;;;;;;;;;;;23.40;38.00;;;;;;8400992;28;19974;-43
2023/04/29 14:33:02;;;;;;;;;;;23.40;38.00;;;;;;8400570;28;19917;-44
2023/04/29 14:37:03;;;;;;;;;;;23.40;38.00;;;;;;8400239;28;20336;-43
2023/04/29 14:41:03;;;;;;;;;;;23.40;38.00;;;;;;8400523;28;19999;-43
2023/04/29 14:45:04;;;;;;;;;;;23.40;38.00;;;;;;8400280;28;20365;-43
2023/04/29 14:49:05;;;;;;;;;;;23.40;37.90;;;;;;8399628;28;19924;-44
2023/04/29 14:53:07;;;;;;;;;;;23.40;38.00;;;;;;8400148;28;19973;-44
2023/04/29 14:57:08;;;;;;;;;;;23.40;38.00;;;;;;8400233;28;19912;-43
2023/04/29 15:01:08;;;;;;;;;;;23.30;37.90;;;;;;8399978;28;19947;-42
2023/04/29 15:05:09;;;;;;;;;;;23.40;38.00;;;;;;8399835;28;19921;-44
2023/04/29 15:09:09;;;;;;;;;;;23.40;38.00;;;;;;8399200;28;19962;-44
2023/04/29 15:13:09;;;;;;;;;;;23.30;38.00;;;;;;8399736;28;19920;-45
2023/04/29 15:17:10;;;;;;;;;;;23.30;38.00;;;;;;8399683;28;19916;-45
2023/04/29 15:21:11;;;;;;;;;;;23.40;38.00;;;;;;8398762;28;19912;-45
2023/04/29 15:25:11;;;;;;;;;;;23.30;38.00;;;;;;8399291;28;19924;-43
2023/04/29 15:29:12;;;;;;;;;;;23.30;38.00;;;;;;8398796;28;20015;-43
2023/04/29 15:33:12;;;;;;;;;;;23.30;38.00;;;;;;8397770;28;20284;-43
2023/04/29 15:37:12;;;;;;;;;;;23.30;38.00;;;;;;8398721;28;19948;-43
2023/04/29 15:41:13;;;;;;;;;;;23.30;37.90;;;;;;8398769;28;19917;-43
2023/04/29 15:45:14;;;;;;;;;;;23.30;38.00;;;;;;8398083;28;19916;-43
2023/04/29 15:49:14;;;;;;;;;;;23.40;38.00;;;;;;8398545;28;19931;-42
2023/04/29 15:53:14;;;;;;;;;;;23.30;38.00;;;;;;8398417;28;19916;-42
2023/04/29 15:57:15;;;;;;;;;;;23.30;37.90;;;;;;8397747;28;19920;-43
2023/04/29 16:01:15;;;;;;;;;;;23.40;38.00;;;;;;8398151;28;19921;-44
2023/04/29 16:05:16;;;;;;;;;;;23.40;38.00;;;;;;8398076;28;19921;-43
2023/04/29 16:09:16;;;;;;;;;;;23.30;37.90;;;;;;8396034;28;20017;-44
2023/04/29 16:13:17;;;;;;;;;;;23.30;37.90;;;;;;8398233;28;19912;-43
2023/04/29 16:17:17;;;;;;;;;;;23.30;37.90;;;;;;8397208;28;19920;-44
2023/04/29 16:21:18;;;;;;;;;;;23.30;37.90;;;;;;8396715;28;19920;-44
2023/04/29 16:25:18;;;;;;;;;;;23.30;37.90;;;;;;8397401;28;19916;-44
2023/04/29 16:29:19;;;;;;;;;;;23.30;37.90;;;;;;8396983;28;19925;-45
2023/04/29 16:33:20;;;;;;;;;;;23.30;37.90;;;;;;8396487;28;19959;-44
2023/04/29 16:37:20;;;;;;;;;;;23.30;37.80;;;;;;8396684;28;19928;-45
2023/04/29 16:41:25;;;;;;;;;;;23.30;37.80;;;;;;8396549;28;20400;-45
2023/04/29 16:45:25;;;;;;;;;;;23.30;37.80;;;;;;8394748;28;19918;-43
2023/04/29 16:49:25;;;;;;;;;;;23.30;37.80;;;;;;8395257;28;19924;-43
2023/04/29 16:53:26;;;;;;;;;;;23.30;37.90;;;;;;8396533;28;20377;-44
2023/04/29 16:57:26;;;;;;;;;;;23.30;37.80;;;;;;8395676;28;20243;-45
2023/04/29 17:01:27;;;;;;;;;;;23.30;37.90;;;;;;8396151;28;19916;-44
2023/04/29 17:05:28;;;;;;;;;;;23.30;37.80;;;;;;8395603;28;20301;-44
2023/04/29 17:09:30;;;;;;;;;;;23.30;37.80;;;;;;8395376;28;19960;-44
2023/04/29 17:13:30;;;;;;;;;;;23.30;37.80;;;;;;8396737;28;19916;-43
2023/04/29 17:17:31;;;;;;;;;;;23.30;37.80;;;;;;8396006;28;20007;-45
2023/04/29 17:21:31;;;;;;;;;;;23.30;37.80;;;;;;8395367;28;19916;-45
2023/04/29 17:25:32;;;;;;;;;;;23.30;37.80;;;;;;8395977;28;19916;-44
2023/04/29 17:29:32;;;;;;;;;;;23.30;37.80;;;;;;8394239;28;19927;-44
2023/04/29 17:33:34;;;;;;;;;;;23.30;37.80;;;;;;8395239;28;19920;-43
2023/04/29 17:37:34;;;;;;;;;;;23.30;37.80;;;;;;8395539;28;19920;-45
2023/04/29 17:41:35;;;;;;;;;;;23.30;37.80;;;;;;8395310;28;20365;-44
2023/04/29 17:45:38;;;;;;;;;;;23.30;37.90;;;;;;8395010;28;20556;-45
2023/04/29 17:49:38;;;;;;;;;;;23.30;37.90;;;;;;8395255;28;19924;-44
2023/04/29 17:53:39;;;;;;;;;;;23.20;37.80;;;;;;8394340;28;20587;-45
2023/04/29 17:57:39;;;;;;;;;;;23.20;37.90;;;;;;8399294;28;20399;-43
2023/04/29 18:01:40;;;;;;;;;;;23.20;37.90;;;;;;8402100;28;19927;-43
2023/04/29 18:05:40;;;;;;;;;;;23.20;37.90;;;;;;8401720;28;20003;-44
2023/04/29 18:09:41;;;;;;;;;;;23.20;37.90;;;;;;8401159;28;20292;-43
2023/04/29 18:13:41;;;;;;;;;;;23.20;37.90;;;;;;8401697;28;20273;-44
2023/04/29 18:17:42;;;;;;;;;;;23.20;37.90;;;;;;8399922;28;19939;-47
2023/04/29 18:21:43;;;;;;;;;;;23.20;37.90;;;;;;8400650;28;19963;-44
2023/04/29 18:25:43;;;;;;;;;;;23.10;37.90;;;;;;8401115;28;19963;-43
2023/04/29 18:29:44;;;;;;;;;;;23.20;38.40;;;;;;8400874;28;19913;-44
2023/04/29 18:33:44;;;;;;;;;;;23.10;37.90;;;;;;8400493;28;19913;-43
2023/04/29 18:37:45;;;;;;;;;;;23.10;37.90;;;;;;8401105;28;19917;-44
2023/04/29 18:41:45;;;;;;;;;;;23.10;37.90;;;;;;8400984;28;19923;-43
2023/04/29 18:45:46;;;;;;;;;;;23.10;37.90;;;;;;8399751;28;19956;-44
2023/04/29 18:49:47;;;;;;;;;;;23.10;37.90;;;;;;8398899;28;19923;-42
2023/04/29 18:53:47;;;;;;;;;;;23.10;38.00;;;;;;8399362;28;19913;-43
2023/04/29 18:57:47;;;;;;;;;;;23.10;38.00;;;;;;8399495;28;20374;-44
2023/04/29 19:01:48;;;;;;;;;;;23.10;38.00;;;;;;8399888;28;19970;-44
2023/04/29 19:05:49;;;;;;;;;;;23.10;38.00;;;;;;8399795;28;20365;-42
2023/04/29 19:09:49;;;;;;;;;;;23.00;38.00;;;;;;8372602;28;19919;-43
2023/04/29 19:13:50;;;;;;;;;;;23.00;38.00;;;;;;8399729;28;19916;-43
2023/04/29 19:17:50;;;;;;;;;;;23.00;37.90;;;;;;8399421;28;19920;-43
2023/04/29 19:21:51;;;;;;;;;;;23.00;38.00;;;;;;8398790;28;19917;-44
2023/04/29 19:25:51;;;;;;;;;;;23.00;37.90;;;;;;8398948;28;21838;-42
2023/04/29 19:29:52;;;;;;;;;;;23.00;37.90;;;;;;8399033;28;19912;-42
2023/04/29 19:33:52;;;;;;;;;;;23.00;37.90;;;;;;8397470;28;20396;-44
2023/04/29 19:37:53;;;;;;;;;;;23.00;37.90;;;;;;8398849;28;20365;-42
2023/04/29 19:41:54;;;;;;;;;;;23.00;37.90;;;;;;8398587;28;19916;-44
2023/04/29 19:45:55;;;;;;;;;;;23.00;37.80;;;;;;8397682;28;19943;-43
2023/04/29 19:49:55;;;;;;;;;;;23.00;37.90;;;;;;8399135;28;19920;-43
2023/04/29 19:53:58;;;;;;;;;;;23.00;37.90;;;;;;8398298;28;19917;-43
2023/04/29 19:57:59;;;;;;;;;;;23.00;37.90;;;;;;8397602;28;20007;-43
2023/04/29 20:01:59;;;;;;;;;;;22.90;37.80;;;;;;8398179;28;20369;-43
2023/04/29 20:06:01;;;;;;;;;;;23.00;37.80;;;;;;8396524;28;19924;-43
2023/04/29 20:10:02;;;;;;;;;;;22.90;37.80;;;;;;8397365;28;20096;-43
2023/04/29 20:14:03;;;;;;;;;;;23.00;37.80;;;;;;8397748;28;19996;-47
2023/04/29 20:18:03;;;;;;;;;;;23.00;37.80;;;;;;8396835;28;19916;-43
2023/04/29 20:22:04;;;;;;;;;;;22.90;37.70;;;;;;8396988;28;19917;-44
2023/04/29 20:26:04;;;;;;;;;;;22.90;37.80;;;;;;8397331;28;19932;-42
2023/04/29 20:30:05;;;;;;;;;;;22.90;37.70;;;;;;8397116;28;19912;-42
2023/04/29 20:34:06;;;;;;;;;;;22.90;37.70;;;;;;8396916;28;19944;-43
2023/04/29 20:38:06;;;;;;;;;;;22.90;37.70;;;;;;8396754;28;19917;-44
2023/04/29 20:42:07;;;;;;;;;;;22.90;37.70;;;;;;8396317;28;20420;-42
2023/04/29 20:46:07;;;;;;;;;;;22.90;37.70;;;;;;8396645;28;19920;-43
2023/04/29 20:50:08;;;;;;;;;;;22.80;37.70;;;;;;8396837;28;19913;-43
2023/04/29 20:54:09;;;;;;;;;;;22.80;37.70;;;;;;8395918;28;20301;-41
2023/04/29 20:58:10;;;;;;;;;;;22.80;37.70;;;;;;8396476;28;19974;-45
2023/04/29 21:02:11;;;;;;;;;;;22.80;37.60;;;;;;8396125;28;19920;-43
2023/04/29 21:06:11;;;;;;;;;;;22.80;37.70;;;;;;8395325;28;19925;-43
2023/04/29 21:10:12;;;;;;;;;;;22.80;38.20;;;;;;8396067;28;20400;-43
2023/04/29 21:14:14;;;;;;;;;;;22.80;37.80;;;;;;8395233;28;21340;-42
2023/04/29 21:18:15;;;;;;;;;;;22.80;37.70;;;;;;8395720;28;19922;-44
2023/04/29 21:22:15;;;;;;;;;;;22.80;37.70;;;;;;8395710;28;19917;-43
2023/04/29 21:26:15;;;;;;;;;;;22.80;37.70;;;;;;8395947;28;19966;-44
2023/04/29 21:30:16;;;;;;;;;;;22.80;37.60;;;;;;8394629;28;19916;-43
2023/04/29 21:34:16;;;;;;;;;;;22.70;37.70;;;;;;8395571;28;19923;-42
2023/04/29 21:38:17;;;;;;;;;;;22.70;37.70;;;;;;8395716;28;19916;-43
2023/04/29 21:42:21;;;;;;;;;;;22.70;37.70;;;;;;8394781;28;19913;-43
2023/04/29 21:46:22;;;;;;;;;;;22.70;37.70;;;;;;8395230;28;20331;-44
2023/04/29 21:50:22;;;;;;;;;;;22.70;37.60;;;;;;8394118;28;19917;-45
2023/04/29 21:54:23;;;;;;;;;;;22.70;37.60;;;;;;8394762;28;20286;-43
2023/04/29 21:58:23;;;;;;;;;;;22.70;37.60;;;;;;8395516;28;19917;-43
2023/04/29 22:02:26;;;;;;;;;;;22.70;37.60;;;;;;8394143;28;19970;-43
2023/04/29 22:06:26;;;;;;;;;;;22.70;37.60;;;;;;8394594;28;19939;-43
2023/04/29 22:10:27;;;;;;;;;;;22.70;37.60;;;;;;8394234;28;20272;-43
2023/04/29 22:14:28;;;;;;;;;;;22.70;37.60;;;;;;8395191;28;19917;-43
2023/04/29 22:18:28;;;;;;;;;;;22.60;37.60;;;;;;8394529;28;19920;-42
2023/04/29 22:22:29;;;;;;;;;;;22.70;37.60;;;;;;8395039;28;19920;-44
2023/04/29 22:26:29;;;;;;;;;;;22.60;37.50;;;;;;8394856;28;20381;-44
2023/04/29 22:30:30;;;;;;;;;;;22.60;37.60;;;;;;8394485;28;19955;-44
2023/04/29 22:34:30;;;;;;;;;;;22.60;37.60;;;;;;8394504;28;19921;-43
2023/04/29 22:38:31;;;;;;;;;;;22.60;37.60;;;;;;8393574;28;20004;-44
2023/04/29 22:42:31;;;;;;;;;;;22.60;37.60;;;;;;8396092;28;19923;-44
2023/04/29 22:46:32;;;;;;;;;;;22.60;37.60;;;;;;8400233;28;19967;-43
2023/04/29 22:50:32;;;;;;;;;;;22.60;37.60;;;;;;8400365;28;19916;-44
2023/04/29 22:54:33;;;;;;;;;;;22.50;37.50;;;;;;8398270;28;20296;-44
2023/04/29 22:58:33;;;;;;;;;;;22.50;37.50;;;;;;8400257;28;20434;-43
2023/04/29 23:02:34;;;;;;;;;;;22.50;37.50;;;;;;8399893;28;19925;-44
2023/04/29 23:06:34;;;;;;;;;;;22.50;37.50;;;;;;8398055;28;19921;-43
2023/04/29 23:10:35;;;;;;;;;;;22.50;37.50;;;;;;8399833;28;20348;-43
2023/04/29 23:14:35;;;;;;;;;;;22.50;37.50;;;;;;8399365;28;19923;-44
2023/04/29 23:18:35;;;;;;;;;;;22.50;37.50;;;;;;8399026;28;19917;-44
2023/04/29 23:22:36;;;;;;;;;;;22.50;37.50;;;;;;8399458;28;19916;-43